createdAt,value
2023-04-17T00:00:36.348Z,2.78
2023-04-17T00:03:03.688Z,2.90
2023-04-17T00:05:33.844Z,2.65
2023-04-17T00:08:00.474Z,2.67
2023-04-17T00:10:27.128Z,2.90
2023-04-17T00:12:53.679Z,2.97
2023-04-17T00:15:20.601Z,2.80
2023-04-17T00:17:47.637Z,2.97
2023-04-17T00:20:14.420Z,2.92
2023-04-17T00:22:41.102Z,3.05
2023-04-17T00:25:08.144Z,3.65
2023-04-17T00:27:34.890Z,3.25
2023-04-17T00:30:01.949Z,2.97
2023-04-17T00:32:28.724Z,2.70
2023-04-17T00:34:55.955Z,2.83
2023-04-17T00:37:22.634Z,3.03
2023-04-17T00:39:49.365Z,3.40
2023-04-17T00:42:18.260Z,3.08
2023-04-17T00:44:44.977Z,2.90
2023-04-17T00:47:12.576Z,3.45
2023-04-17T00:49:39.410Z,3.28
2023-04-17T00:52:06.572Z,3.60
2023-04-17T00:54:33.525Z,3.35
2023-04-17T00:57:01.499Z,3.50
2023-04-17T00:59:29.058Z,3.65
2023-04-17T01:01:56.090Z,3.75
2023-04-17T01:04:23.275Z,3.80
2023-04-17T01:06:50.430Z,3.75
2023-04-17T01:09:17.242Z,3.70
2023-04-17T01:11:44.139Z,3.80
2023-04-17T01:14:11.695Z,4.25
2023-04-17T01:16:40.659Z,3.80
2023-04-17T01:19:09.417Z,4.00
2023-04-17T01:21:36.450Z,3.80
2023-04-17T01:24:03.688Z,4.10
2023-04-17T01:26:31.776Z,3.83
2023-04-17T01:28:59.194Z,4.30
2023-04-17T01:31:26.565Z,3.95
2023-04-17T01:33:53.860Z,4.18
2023-04-17T01:36:23.568Z,4.15
2023-04-17T01:38:53.073Z,3.70
2023-04-17T01:41:20.064Z,4.38
2023-04-17T01:43:47.803Z,4.60
2023-04-17T01:46:14.894Z,4.60
2023-04-17T01:48:41.909Z,4.20
2023-04-17T01:51:08.652Z,4.20
2023-04-17T01:53:36.517Z,5.00
2023-04-17T01:56:03.577Z,4.20
2023-04-17T01:58:31.256Z,4.28
2023-04-17T02:00:58.308Z,4.65
2023-04-17T02:03:25.410Z,4.40
2023-04-17T02:05:55.902Z,4.47
2023-04-17T02:08:22.752Z,4.53
2023-04-17T02:10:49.587Z,4.72
2023-04-17T02:13:16.572Z,4.88
2023-04-17T02:15:43.599Z,4.57
2023-04-17T02:18:10.649Z,5.00
2023-04-17T02:20:37.901Z,4.85
2023-04-17T02:23:06.055Z,4.85
2023-04-17T02:25:33.660Z,5.07
2023-04-17T02:28:00.924Z,5.22
2023-04-17T02:30:28.166Z,4.90
2023-04-17T02:32:56.458Z,4.65
2023-04-17T02:35:29.549Z,4.65
2023-04-17T02:37:56.498Z,4.78
2023-04-17T02:40:24.467Z,4.45
2023-04-17T02:42:51.626Z,5.10
2023-04-17T02:45:18.790Z,4.90
2023-04-17T02:47:46.160Z,5.13
2023-04-17T02:50:13.131Z,4.35
2023-04-17T02:52:40.251Z,5.00
2023-04-17T02:55:07.239Z,5.15
2023-04-17T02:57:34.319Z,4.90
2023-04-17T03:00:08.428Z,4.88
2023-04-17T03:02:35.515Z,5.15
2023-04-17T03:05:02.381Z,5.03
2023-04-17T03:07:29.122Z,5.00
2023-04-17T03:09:57.813Z,5.25
2023-04-17T03:12:24.994Z,5.47
2023-04-17T03:14:52.361Z,5.70
2023-04-17T03:17:21.451Z,4.82
2023-04-17T03:19:48.589Z,5.00
2023-04-17T03:22:15.760Z,5.60
2023-04-17T03:24:42.910Z,5.60
2023-04-17T03:27:09.864Z,5.30
2023-04-17T03:29:36.902Z,4.88
2023-04-17T03:32:04.009Z,5.60
2023-04-17T03:34:31.843Z,5.18
2023-04-17T03:36:59.304Z,5.28
2023-04-17T03:39:26.365Z,4.97
2023-04-17T03:41:53.544Z,4.90
2023-04-17T03:44:20.469Z,5.18
2023-04-17T03:46:47.420Z,5.68
2023-04-17T03:49:14.499Z,5.07
2023-04-17T03:51:43.060Z,5.70
2023-04-17T03:54:10.121Z,4.97
2023-04-17T03:56:36.871Z,5.57
2023-04-17T03:59:04.491Z,5.32
2023-04-17T04:01:32.930Z,5.25
2023-04-17T04:04:00.317Z,5.20
2023-04-17T04:06:30.105Z,5.00
2023-04-17T04:08:57.451Z,5.88
2023-04-17T04:11:23.988Z,5.50
2023-04-17T04:13:50.940Z,5.88
2023-04-17T04:16:17.722Z,5.50
2023-04-17T04:18:45.789Z,5.57
2023-04-17T04:21:12.741Z,5.32
2023-04-17T04:23:43.072Z,5.90
2023-04-17T04:26:09.792Z,5.95
2023-04-17T04:28:36.537Z,5.85
2023-04-17T04:31:04.083Z,5.60
2023-04-17T04:33:30.816Z,5.30
2023-04-17T04:36:01.264Z,5.70
2023-04-17T04:38:33.070Z,5.50
2023-04-17T04:41:06.551Z,5.32
2023-04-17T04:43:35.937Z,5.40
2023-04-17T04:46:03.320Z,5.60
2023-04-17T04:48:30.382Z,5.68
2023-04-17T04:50:57.178Z,5.20
2023-04-17T04:53:24.180Z,5.40
2023-04-17T04:55:50.971Z,5.63
2023-04-17T04:58:17.516Z,5.60
2023-04-17T05:00:44.324Z,5.22
2023-04-17T05:03:11.422Z,5.35
2023-04-17T05:05:38.840Z,5.63
2023-04-17T05:08:06.007Z,5.10
2023-04-17T05:10:32.798Z,5.28
2023-04-17T05:12:59.533Z,5.72
2023-04-17T05:15:27.309Z,5.10
2023-04-17T05:17:54.262Z,5.68
2023-04-17T05:20:21.530Z,5.20
2023-04-17T05:22:48.274Z,5.18
2023-04-17T05:25:16.542Z,5.38
2023-04-17T05:27:43.250Z,5.55
2023-04-17T05:30:10.432Z,5.30
2023-04-17T05:32:37.394Z,5.53
2023-04-17T05:35:04.969Z,5.05
2023-04-17T05:37:31.687Z,5.32
2023-04-17T05:40:06.600Z,5.55
2023-04-17T05:42:37.103Z,5.40
2023-04-17T05:45:11.453Z,5.50
2023-04-17T05:47:38.598Z,4.88
2023-04-17T05:50:05.668Z,5.80
2023-04-17T05:52:32.545Z,5.50
2023-04-17T05:54:59.313Z,5.13
2023-04-17T05:57:26.123Z,5.50
2023-04-17T06:00:02.319Z,5.15
2023-04-17T06:02:29.136Z,4.82
2023-04-17T06:04:58.707Z,5.32
2023-04-17T06:07:25.808Z,4.80
2023-04-17T06:09:52.803Z,4.90
2023-04-17T06:12:20.097Z,4.97
2023-04-17T06:14:46.993Z,5.10
2023-04-17T06:17:13.961Z,4.22
2023-04-17T06:19:41.358Z,5.15
2023-04-17T06:22:08.425Z,4.88
2023-04-17T06:24:35.813Z,4.75
2023-04-17T06:27:03.846Z,4.95
2023-04-17T06:29:30.854Z,4.97
2023-04-17T06:31:57.683Z,4.63
2023-04-17T06:34:25.462Z,4.90
2023-04-17T06:36:53.709Z,4.40
2023-04-17T06:39:21.363Z,4.60
2023-04-17T06:41:48.693Z,4.72
2023-04-17T06:44:15.764Z,4.38
2023-04-17T06:46:42.458Z,4.70
2023-04-17T06:49:09.268Z,4.10
2023-04-17T06:51:36.182Z,4.82
2023-04-17T06:54:02.983Z,4.82
2023-04-17T06:56:29.893Z,4.68
2023-04-17T06:58:58.062Z,4.60
2023-04-17T07:01:24.923Z,4.72
2023-04-17T07:03:52.007Z,5.22
2023-04-17T07:06:19.630Z,4.30
2023-04-17T07:08:46.296Z,4.22
2023-04-17T07:11:13.031Z,4.93
2023-04-17T07:13:40.066Z,4.90
2023-04-17T07:16:07.090Z,4.68
2023-04-17T07:18:37.087Z,4.30
2023-04-17T07:21:04.095Z,4.50
2023-04-17T07:23:30.796Z,4.97
2023-04-17T07:25:57.390Z,4.70
2023-04-17T07:28:24.966Z,4.60
2023-04-17T07:30:53.322Z,4.85
2023-04-17T07:33:20.080Z,4.65
2023-04-17T07:35:47.240Z,4.78
2023-04-17T07:38:13.939Z,4.78
2023-04-17T07:40:43.252Z,4.70
2023-04-17T07:43:10.036Z,4.32
2023-04-17T07:45:39.129Z,4.78
2023-04-17T07:48:07.314Z,4.65
2023-04-17T07:50:37.378Z,4.85
2023-04-17T07:53:04.082Z,4.70
2023-04-17T07:55:31.216Z,4.47
2023-04-17T07:57:58.913Z,5.15
2023-04-17T08:00:26.464Z,5.28
2023-04-17T08:02:53.463Z,4.47
2023-04-17T08:05:20.704Z,5.20
2023-04-17T08:07:47.337Z,5.10
2023-04-17T08:10:13.915Z,4.90
2023-04-17T08:12:40.879Z,4.80
2023-04-17T08:15:09.050Z,5.20
2023-04-17T08:17:35.916Z,5.18
2023-04-17T08:20:08.145Z,5.05
